Currently 54°F in Anza, California, USA
54°F
60°F / 54°F
4 mph SW
0.00"
Monday, May 29, 2017 2:46 AM PDT

Anza, California Weather Summary
Last 36 Hours

Temperature Winds Hourly Humidity Dewpoint
Time Report Norm Report Norm Max Gusts Precip. Rpt. Norm Rpt. Norm Pressure
1,3Mon 02:46 AM  53.9°F  55°F  4 mph SW  6 mph  6 mph  0.00"  72%  72%  45°F  46°F  N/A
Mon 02:00 AM  58.3°F  55°F  5 mph N  6 mph  9 mph  0.00"  72%  73%  49°F  46°F  N/A
Mon 01:00 AM  58.6°F  56°F  5 mph NW  6 mph  8 mph  0.00"  71%  73%  49°F  47°F  N/A
2Mon 12:28 AM  60.4°F  56°F  5 mph NW  6 mph  8 mph  ----  66%  73%  48°F  47°F  N/A
Mon 12:00 AM  60.2°F  56°F  5 mph SE  7 mph  8 mph  0.00"  67%  73%  49°F  48°F  N/A
Sun 11:00 PM  61.4°F  57°F  6 mph NW  7 mph  8 mph  0.00"  64%  72%  49°F  48°F  N/A
Sun 10:00 PM  62.8°F  59°F  4 mph SW  7 mph  8 mph  0.00"  54%  69%  45°F  48°F  N/A
Sun 09:00 PM  64.7°F  61°F  6 mph NW  7 mph  9 mph  0.00"  42%  64%  40°F  48°F  N/A
Sun 08:00 PM  68.6°F  65°F  5 mph NW  8 mph  14 mph  0.00"  35%  57%  39°F  48°F  N/A
Sun 07:00 PM  75.4°F  70°F  10 mph W  11 mph  18 mph  0.00"  28%  48%  39°F  49°F  N/A
Sun 06:00 PM  79.1°F  74°F  12 mph W  13 mph  19 mph  0.00"  21%  40%  34°F  48°F  N/A
Sun 05:00 PM  81.1°F  77°F  14 mph W  13 mph  19 mph  0.00"  19%  36%  33°F  47°F  N/A
Sun 04:00 PM  82.6°F  78°F  12 mph W  13 mph  21 mph  0.00"  20%  33%  36°F  46°F  N/A
Sun 03:00 PM  84.3°F  79°F  11 mph W  13 mph  19 mph  0.00"  19%  32%  37°F  45°F  N/A
Sun 02:00 PM  86.0°F  79°F  4 mph SE  12 mph  18 mph  0.00"  12%  31%  25°F  45°F  N/A
Sun 01:00 PM  84.2°F  79°F  8 mph SW  11 mph  16 mph  0.00"  12%  30%  24°F  43°F  N/A
Sun 12:00 PM  83.5°F  77°F  7 mph SE  11 mph  20 mph  0.00"  11%  30%  22°F  43°F  N/A
Sun 11:00 AM  81.4°F  76°F  10 mph S  11 mph  15 mph  0.00"  13%  32%  23°F  43°F  N/A
Sun 10:00 AM  81.0°F  73°F  5 mph SE  9 mph  13 mph  0.00"  13%  35%  24°F  43°F  N/A
Sun 09:00 AM  79.0°F  70°F  3 mph S  8 mph  7 mph  0.00"  16%  41%  28°F  45°F  N/A
Sun 08:00 AM  70.0°F  65°F  4 mph W  8 mph  5 mph  0.00"  26%  51%  32°F  46°F  N/A
Sun 07:00 AM  55.2°F  58°F  calm  6 mph  none  0.00"  52%  67%  37°F  47°F  N/A
Sun 06:00 AM  43.3°F  52°F  calm  5 mph  6 mph  0.00"  56%  76%  28°F  44°F  N/A
Sun 05:00 AM  42.4°F  53°F  3 mph E  5 mph  4 mph  0.00"  52%  76%  25°F  45°F  N/A
Sun 04:00 AM  45.3°F  53°F  3 mph N  6 mph  5 mph  0.00"  52%  76%  28°F  46°F  N/A
Sun 03:00 AM  47.2°F  54°F  calm  6 mph  8 mph  0.00"  54%  77%  31°F  46°F  N/A
Sun 02:00 AM  49.9°F  54°F  6 mph NW  6 mph  8 mph  0.00"  63%  76%  37°F  47°F  N/A
Sun 01:00 AM  50.6°F  55°F  5 mph NW  7 mph  8 mph  0.00"  86%  77%  46°F  47°F  N/A
Sun 12:00 AM  53.1°F  56°F  6 mph NW  7 mph  10 mph  0.00"  83%  76%  48°F  48°F  N/A
Sat 11:00 PM  55.7°F  57°F  7 mph W  7 mph  11 mph  0.00"  83%  74%  50°F  49°F  N/A
Sat 10:00 PM  56.2°F  58°F  7 mph NW  7 mph  9 mph  0.00"  81%  71%  50°F  49°F  N/A
Sat 09:00 PM  59.0°F  60°F  6 mph NW  7 mph  8 mph  0.00"  76%  66%  51°F  48°F  N/A
Sat 08:00 PM  63.0°F  64°F  3 mph SW  8 mph  14 mph  0.00"  67%  60%  52°F  49°F  N/A
Sat 07:00 PM  69.3°F  69°F  11 mph W  11 mph  15 mph  0.00"  55%  51%  52°F  49°F  N/A
Sat 06:00 PM  73.6°F  73°F  9 mph W  13 mph  17 mph  0.00"  47%  43%  52°F  48°F  N/A
Sat 05:00 PM  76.3°F  75°F  10 mph NW  13 mph  16 mph  0.00"  40%  39%  50°F  47°F  N/A
Sat 04:00 PM  78.0°F  77°F  11 mph NW  13 mph  19 mph  0.00"  38%  37%  49°F  47°F  N/A
Sat 03:00 PM  78.2°F  78°F  13 mph NW  13 mph  20 mph  0.00"  35%  35%  48°F  47°F  N/A

  1. Current weather data. No green row appears if the current weather data is also the high or low for the current day.
  2. High temperature for the current day.
  3. Low temperature for the current day.

The Anza, California weather pages are a service of WeatherCurrents. The Anza Valley is southwestern Riverside County, east of Temecula and Aguanga, south of Mount San Jacinto and west of Mount Santa Rosa.
Copyright ©Mon May 29 02:47:37 PDT 2017  WeatherCurrents. All rights reserved. - Submit questions and comments - Privacy Policy

This page automatically refreshes every 10 minutes.